Kezdőlap
METAR-TAF:

METAR-TAF

Repülőterek :

Nagyvárad, Románia

földrajzi szélesség: 47-03N, földrajzi hosszúság: 021-56E, magasság: 135 m

Jelenlegi meteorológiai megfigyelések

A jelentés 15 perccel ezelõtt készült, 21:30 UTC
Déli szél 3 kt, kelet-délkeleti és nyugat-délnyugati között változik
Hőmérséklet 18°C
Páratartalom 88%
Légköri nyomás 1021 hPa
Látótávolság 10 km, vagy több

METAR: LROD 262130Z AUTO 17003KT 110V240 9999 BKN170/// 18/16 Q1021

Idő: 00:45 (21:45 UTC)


TAF: hiányzik

Meteorológiai megfigyelések és előrejelzések több, mint 4000 repülőtéren (METAR és TAF jelentéseket).

A térképen piros és sárga pontok jelzik az elérhető meteorológiai állomásokat.

Mozgassa az egeret a pont fölött, hogy megjelenjen az állomás neve.

Azután kattintson az időjárási megfigyelések és előrejelzések megtekintéséhez.

A térkép megváltoztatása: kattintson a fekete keresztel jelölt zöld gombra ráközelítéshez, a vonallal jelölt zöld gombra távolításhoz, vagy a zöld nyilakra a szomszédos térképek eléréséhez.


METAR-TAF: